createdAt,value
2023-04-16T00:00:32.367Z,38.50
2023-04-16T00:02:59.568Z,35.70
2023-04-16T00:05:27.594Z,35.80
2023-04-16T00:07:54.565Z,42.70
2023-04-16T00:10:21.582Z,42.90
2023-04-16T00:12:48.534Z,41.90
2023-04-16T00:15:15.464Z,43.60
2023-04-16T00:17:42.455Z,47.50
2023-04-16T00:20:10.601Z,51.00
2023-04-16T00:22:38.046Z,46.50
2023-04-16T00:25:05.811Z,40.60
2023-04-16T00:27:32.775Z,31.20
2023-04-16T00:29:59.813Z,26.90
2023-04-16T00:32:26.865Z,27.10
2023-04-16T00:34:54.083Z,26.90
2023-04-16T00:37:21.119Z,26.30
2023-04-16T00:39:48.207Z,24.80
2023-04-16T00:42:15.245Z,24.10
2023-04-16T00:44:42.285Z,24.70
2023-04-16T00:47:09.646Z,25.40
2023-04-16T00:49:37.163Z,29.90
2023-04-16T00:52:04.699Z,32.60
2023-04-16T00:54:32.755Z,36.50
2023-04-16T00:57:00.445Z,30.30
2023-04-16T00:59:29.320Z,29.20
2023-04-16T01:01:56.433Z,27.10
2023-04-16T01:04:24.140Z,26.50
2023-04-16T01:06:51.719Z,29.30
2023-04-16T01:09:18.954Z,30.40
2023-04-16T01:11:46.202Z,29.70
2023-04-16T01:14:13.251Z,29.20
2023-04-16T01:16:40.100Z,28.60
2023-04-16T01:19:07.405Z,29.40
2023-04-16T01:21:34.740Z,30.10
2023-04-16T01:24:05.459Z,31.40
2023-04-16T01:26:32.699Z,30.90
2023-04-16T01:29:00.113Z,27.90
2023-04-16T01:31:27.121Z,30.10
2023-04-16T01:33:54.013Z,33.10
2023-04-16T01:36:20.963Z,29.50
2023-04-16T01:38:48.136Z,30.90
2023-04-16T01:41:15.248Z,28.30
2023-04-16T01:43:42.927Z,29.90
2023-04-16T01:46:15.727Z,29.00
2023-04-16T01:48:43.292Z,28.40
2023-04-16T01:51:10.600Z,28.30
2023-04-16T01:53:37.898Z,27.20
2023-04-16T01:56:05.921Z,30.50
2023-04-16T01:58:33.621Z,27.50
2023-04-16T02:01:00.990Z,28.20
2023-04-16T02:03:28.470Z,26.90
2023-04-16T02:05:55.537Z,29.90
2023-04-16T02:08:22.894Z,27.90
2023-04-16T02:10:51.305Z,27.90
2023-04-16T02:13:18.312Z,26.50
2023-04-16T02:15:47.905Z,26.10
2023-04-16T02:18:15.173Z,26.40
2023-04-16T02:20:47.123Z,25.90
2023-04-16T02:23:17.452Z,28.80
2023-04-16T02:25:46.892Z,27.10
2023-04-16T02:28:16.208Z,29.10
2023-04-16T02:30:58.062Z,29.10
2023-04-16T02:33:36.854Z,29.20
2023-04-16T02:36:04.002Z,27.70
2023-04-16T02:38:31.423Z,28.10
2023-04-16T02:40:59.737Z,28.00
2023-04-16T02:43:26.933Z,26.80
2023-04-16T02:45:54.012Z,29.60
2023-04-16T02:48:20.965Z,31.00
2023-04-16T02:50:47.976Z,27.30
2023-04-16T02:53:15.097Z,27.90
2023-04-16T02:55:42.210Z,28.80
2023-04-16T02:58:09.420Z,27.50
2023-04-16T03:00:36.395Z,25.90
2023-04-16T03:03:03.762Z,23.10
2023-04-16T03:05:30.615Z,22.40
2023-04-16T03:07:57.641Z,23.70
2023-04-16T03:10:25.424Z,22.90
2023-04-16T03:12:52.401Z,24.10
2023-04-16T03:15:19.417Z,20.70
2023-04-16T03:17:54.364Z,21.10
2023-04-16T03:20:25.525Z,20.10
2023-04-16T03:23:02.077Z,20.50
2023-04-16T03:25:35.918Z,21.30
2023-04-16T03:28:04.132Z,19.60
2023-04-16T03:30:31.866Z,22.00
2023-04-16T03:32:58.868Z,21.10
2023-04-16T03:35:26.294Z,20.50
2023-04-16T03:37:53.237Z,21.10
2023-04-16T03:40:20.481Z,20.60
2023-04-16T03:42:47.352Z,19.60
2023-04-16T03:45:15.580Z,19.70
2023-04-16T03:47:42.469Z,19.60
2023-04-16T03:50:10.284Z,18.30
2023-04-16T03:52:37.241Z,18.30
2023-04-16T03:55:04.676Z,17.70
2023-04-16T03:57:31.756Z,18.90
2023-04-16T03:59:58.769Z,18.60
2023-04-16T04:02:26.320Z,18.40
2023-04-16T04:04:53.623Z,19.90
2023-04-16T04:07:20.946Z,20.70
2023-04-16T04:09:47.871Z,20.50
2023-04-16T04:12:14.912Z,21.70
2023-04-16T04:14:42.060Z,18.80
2023-04-16T04:17:09.440Z,18.00
2023-04-16T04:19:38.826Z,19.20
2023-04-16T04:22:07.200Z,19.10
2023-04-16T04:24:34.162Z,18.70
2023-04-16T04:27:02.444Z,18.50
2023-04-16T04:29:29.681Z,19.10
2023-04-16T04:31:56.744Z,18.20
2023-04-16T04:34:23.749Z,11.80
2023-04-16T04:36:51.048Z,19.80
2023-04-16T04:39:18.161Z,15.50
2023-04-16T04:41:44.953Z,17.60
2023-04-16T04:44:11.932Z,16.00
2023-04-16T04:46:38.870Z,16.80
2023-04-16T04:49:06.152Z,18.50
2023-04-16T04:51:33.520Z,16.20
2023-04-16T04:54:00.725Z,18.40
2023-04-16T04:56:27.568Z,18.30
2023-04-16T04:58:55.240Z,16.30
2023-04-16T05:01:22.198Z,17.70
2023-04-16T05:03:49.107Z,19.80
2023-04-16T05:06:16.984Z,18.10
2023-04-16T05:08:43.938Z,18.50
2023-04-16T05:11:11.065Z,18.30
2023-04-16T05:13:37.907Z,17.00
2023-04-16T05:16:05.380Z,19.90
2023-04-16T05:18:33.860Z,17.80
2023-04-16T05:21:01.197Z,17.80
2023-04-16T05:23:28.342Z,16.90
2023-04-16T05:25:55.115Z,15.70
2023-04-16T05:28:22.039Z,14.60
2023-04-16T05:30:48.912Z,13.90
2023-04-16T05:33:16.134Z,15.30
2023-04-16T05:35:43.778Z,14.00
2023-04-16T05:38:11.906Z,13.80
2023-04-16T05:40:38.912Z,15.40
2023-04-16T05:43:05.880Z,15.90
2023-04-16T05:45:33.790Z,14.70
2023-04-16T05:48:01.283Z,16.60
2023-04-16T05:50:28.187Z,15.10
2023-04-16T05:52:55.441Z,14.60
2023-04-16T05:55:22.902Z,15.70
2023-04-16T05:57:50.085Z,14.60
2023-04-16T06:00:18.001Z,15.20
2023-04-16T06:02:45.945Z,14.80
2023-04-16T06:05:15.174Z,16.10
2023-04-16T06:07:42.666Z,14.30
2023-04-16T06:10:10.412Z,14.00
2023-04-16T06:12:38.078Z,14.10
2023-04-16T06:15:06.209Z,13.70
2023-04-16T06:17:33.319Z,13.80
2023-04-16T06:20:00.612Z,14.20
2023-04-16T06:22:27.670Z,13.50
2023-04-16T06:24:55.400Z,14.00
2023-04-16T06:27:22.388Z,13.20
2023-04-16T06:29:49.621Z,12.90
2023-04-16T06:32:18.457Z,12.80
2023-04-16T06:34:45.655Z,11.60
2023-04-16T06:37:13.129Z,10.50
2023-04-16T06:39:40.393Z,10.90
2023-04-16T06:42:07.846Z,11.20
2023-04-16T06:44:37.232Z,10.70
2023-04-16T06:47:04.326Z,9.90
2023-04-16T06:49:31.303Z,10.60
2023-04-16T06:51:58.272Z,8.90
2023-04-16T06:54:25.089Z,8.50
2023-04-16T06:56:51.946Z,8.90
2023-04-16T06:59:18.976Z,10.40
2023-04-16T07:01:45.864Z,8.90
2023-04-16T07:04:13.101Z,10.30
2023-04-16T07:06:40.420Z,11.00
2023-04-16T07:09:07.339Z,7.70
2023-04-16T07:11:34.830Z,8.20
2023-04-16T07:14:02.006Z,7.90
2023-04-16T07:16:28.960Z,8.30
2023-04-16T07:18:56.054Z,8.00
2023-04-16T07:21:23.229Z,8.60
2023-04-16T07:23:50.066Z,9.00
2023-04-16T07:26:16.907Z,7.60
2023-04-16T07:28:43.868Z,5.80
2023-04-16T07:31:11.184Z,4.70
2023-04-16T07:33:38.039Z,4.00
2023-04-16T07:36:05.515Z,5.10
2023-04-16T07:38:32.356Z,3.60
2023-04-16T07:40:59.191Z,3.90
2023-04-16T07:43:26.097Z,4.10
2023-04-16T07:45:53.052Z,3.00
2023-04-16T07:48:19.988Z,2.60
2023-04-16T07:50:47.029Z,3.50
2023-04-16T07:53:13.986Z,3.80
2023-04-16T07:55:41.327Z,3.50
2023-04-16T07:58:09.856Z,3.60
2023-04-16T08:00:36.860Z,4.00
2023-04-16T08:03:04.368Z,3.80
2023-04-16T08:05:31.789Z,3.60
2023-04-16T08:07:58.947Z,4.30
2023-04-16T08:10:26.179Z,3.80
2023-04-16T08:12:53.224Z,3.60
2023-04-16T08:15:20.453Z,3.80
2023-04-16T08:17:47.670Z,3.40
2023-04-16T08:20:17.043Z,3.50
2023-04-16T08:22:46.769Z,4.10
2023-04-16T08:25:14.782Z,3.60
2023-04-16T08:27:41.769Z,3.80
2023-04-16T08:30:08.764Z,3.70
2023-04-16T08:32:35.872Z,3.90
2023-04-16T08:35:03.166Z,3.20
2023-04-16T08:37:30.113Z,3.90
2023-04-16T08:39:57.128Z,3.90
2023-04-16T08:42:32.735Z,4.50
2023-04-16T08:45:14.283Z,3.30
2023-04-16T08:47:42.379Z,4.20
2023-04-16T08:50:12.933Z,4.10
2023-04-16T08:52:47.349Z,4.10
2023-04-16T08:55:15.225Z,3.70
2023-04-16T08:57:49.872Z,4.20
2023-04-16T09:00:17.363Z,4.00
2023-04-16T09:02:44.697Z,4.00
2023-04-16T09:05:17.380Z,8.50
2023-04-16T09:07:46.755Z,4.70
2023-04-16T09:10:15.923Z,4.20
2023-04-16T09:12:43.858Z,4.20
2023-04-16T09:15:12.506Z,3.70
2023-04-16T09:17:40.487Z,3.80
2023-04-16T09:20:11.109Z,3.90
2023-04-16T09:22:40.348Z,3.70
2023-04-16T09:25:08.675Z,3.60
2023-04-16T09:27:36.516Z,4.60
2023-04-16T09:30:22.496Z,4.30
2023-04-16T09:32:51.381Z,3.70
2023-04-16T09:35:21.951Z,3.20
2023-04-16T09:37:58.969Z,3.10
2023-04-16T09:40:27.767Z,2.70
2023-04-16T09:42:58.899Z,2.50
2023-04-16T09:45:25.934Z,2.70
2023-04-16T09:47:52.979Z,3.40
2023-04-16T09:50:20.833Z,3.20
2023-04-16T09:52:54.210Z,3.10
2023-04-16T09:55:27.600Z,3.30
2023-04-16T09:58:01.794Z,3.50
2023-04-16T10:00:31.754Z,2.90
2023-04-16T10:03:06.530Z,3.10
2023-04-16T10:05:33.775Z,3.00
2023-04-16T10:08:02.431Z,2.80
2023-04-16T10:10:29.956Z,2.80
2023-04-16T10:12:57.132Z,2.70
2023-04-16T10:15:24.591Z,2.50
2023-04-16T10:17:52.387Z,2.70
2023-04-16T10:20:20.095Z,2.30
2023-04-16T10:22:47.369Z,2.60
2023-04-16T10:25:15.132Z,2.60
2023-04-16T10:27:42.097Z,2.90
2023-04-16T10:30:11.298Z,2.20
2023-04-16T10:32:38.798Z,2.40
2023-04-16T10:35:07.140Z,2.90
2023-04-16T10:37:34.335Z,3.10
2023-04-16T10:40:01.563Z,2.50
2023-04-16T10:42:28.967Z,2.40
2023-04-16T10:45:00.686Z,2.00
2023-04-16T10:47:29.665Z,2.20
2023-04-16T10:49:58.550Z,2.10
2023-04-16T10:52:29.616Z,2.10
2023-04-16T10:55:00.621Z,2.10
2023-04-16T10:57:30.427Z,1.90
2023-04-16T10:59:57.470Z,3.60
2023-04-16T11:02:29.241Z,2.10
2023-04-16T11:04:58.225Z,1.70
2023-04-16T11:07:36.203Z,2.70
2023-04-16T11:10:13.069Z,1.60
2023-04-16T11:12:46.678Z,1.60
2023-04-16T11:15:16.526Z,1.40
2023-04-16T11:17:46.382Z,1.70
2023-04-16T11:20:20.416Z,1.80
2023-04-16T11:22:53.467Z,1.80
2023-04-16T11:25:31.852Z,1.80
2023-04-16T11:28:01.719Z,2.40
2023-04-16T11:30:36.919Z,1.80
2023-04-16T11:33:09.982Z,1.50
2023-04-16T11:35:39.948Z,2.10
2023-04-16T11:38:07.918Z,2.20
2023-04-16T11:40:36.742Z,1.70
2023-04-16T11:43:14.211Z,2.20
2023-04-16T11:46:07.430Z,1.80
2023-04-16T11:48:51.452Z,1.80
2023-04-16T11:51:19.479Z,1.70
2023-04-16T11:53:54.283Z,1.80
2023-04-16T11:56:32.572Z,1.80
2023-04-16T11:59:12.042Z,1.90
2023-04-16T12:01:40.838Z,1.70
2023-04-16T12:04:09.233Z,1.80
2023-04-16T12:06:36.806Z,3.00
2023-04-16T12:09:25.719Z,1.70
2023-04-16T12:11:52.705Z,1.70
2023-04-16T12:14:20.736Z,1.50
2023-04-16T12:16:48.316Z,1.60
2023-04-16T12:19:15.935Z,1.60
2023-04-16T12:21:45.610Z,1.90
2023-04-16T12:24:15.211Z,1.60
2023-04-16T12:26:47.365Z,1.40
2023-04-16T12:29:16.137Z,1.60
2023-04-16T12:31:43.165Z,1.70
2023-04-16T12:34:10.732Z,1.50
2023-04-16T12:36:39.076Z,1.50
2023-04-16T12:39:06.406Z,2.40
2023-04-16T12:41:37.107Z,1.70
2023-04-16T12:44:18.184Z,1.80
2023-04-16T12:46:45.688Z,1.60
2023-04-16T12:49:12.723Z,1.80
2023-04-16T12:51:39.822Z,1.90
2023-04-16T12:54:08.411Z,1.70
2023-04-16T12:56:36.668Z,1.90
2023-04-16T12:59:04.111Z,1.90
2023-04-16T13:01:31.274Z,2.10
2023-04-16T13:03:58.717Z,2.10
2023-04-16T13:06:26.583Z,2.50
2023-04-16T13:08:53.765Z,1.80
2023-04-16T13:11:21.128Z,2.10
2023-04-16T13:13:48.231Z,2.00
2023-04-16T13:16:15.640Z,2.00
2023-04-16T13:18:43.210Z,2.20
2023-04-16T13:21:11.693Z,2.20
2023-04-16T13:23:38.740Z,2.10
2023-04-16T13:26:05.810Z,2.00
2023-04-16T13:28:32.766Z,2.10
2023-04-16T13:31:00.721Z,2.20
2023-04-16T13:33:29.050Z,2.10
2023-04-16T13:36:12.344Z,2.00
2023-04-16T13:38:39.882Z,2.40
2023-04-16T13:41:18.706Z,2.80
2023-04-16T13:43:59.283Z,2.70
2023-04-16T13:46:27.829Z,2.90
2023-04-16T13:48:56.094Z,2.70
2023-04-16T13:51:23.289Z,2.20
2023-04-16T13:53:50.741Z,2.40
2023-04-16T13:56:17.662Z,2.70
2023-04-16T13:58:44.653Z,2.20
2023-04-16T14:01:12.375Z,2.50
2023-04-16T14:03:40.949Z,3.10
2023-04-16T14:06:08.421Z,2.60
2023-04-16T14:08:35.374Z,2.60
2023-04-16T14:11:02.407Z,2.40
2023-04-16T14:13:29.485Z,2.20
2023-04-16T14:15:57.414Z,10.00
2023-04-16T14:18:24.449Z,6.70
2023-04-16T14:20:51.613Z,3.20
2023-04-16T14:23:18.826Z,3.70
2023-04-16T14:25:45.792Z,2.60
2023-04-16T14:28:14.311Z,2.60
2023-04-16T14:30:42.932Z,2.20
2023-04-16T14:33:09.999Z,2.50
2023-04-16T14:35:37.045Z,3.00
2023-04-16T14:38:03.885Z,2.90
2023-04-16T14:40:30.824Z,2.60
2023-04-16T14:42:57.976Z,2.90
2023-04-16T14:45:29.628Z,2.50
2023-04-16T14:47:57.610Z,2.70
2023-04-16T14:50:24.530Z,3.20
2023-04-16T14:52:51.982Z,3.30
2023-04-16T14:55:18.941Z,3.10
2023-04-16T14:57:45.883Z,3.60
2023-04-16T15:00:17.400Z,4.40
2023-04-16T15:02:45.598Z,3.60
2023-04-16T15:05:12.950Z,3.60
2023-04-16T15:07:40.786Z,3.50
2023-04-16T15:10:09.551Z,3.70
2023-04-16T15:12:38.820Z,4.30
2023-04-16T15:15:09.812Z,3.90
2023-04-16T15:17:37.328Z,4.90
2023-04-16T15:20:11.100Z,4.80
2023-04-16T15:22:38.760Z,4.60
2023-04-16T15:25:07.384Z,4.10
2023-04-16T15:27:34.304Z,4.90
2023-04-16T15:30:01.373Z,5.60
2023-04-16T15:32:28.796Z,5.90
2023-04-16T15:34:56.046Z,4.80
2023-04-16T15:37:23.057Z,4.60
2023-04-16T15:39:50.502Z,4.30
2023-04-16T15:42:17.687Z,4.80
2023-04-16T15:44:44.975Z,3.90
2023-04-16T15:47:12.522Z,4.60
2023-04-16T15:49:40.264Z,4.30
2023-04-16T15:52:07.964Z,4.70
2023-04-16T15:54:35.539Z,5.00
2023-04-16T15:57:03.045Z,4.50
2023-04-16T15:59:30.289Z,4.80
2023-04-16T16:01:57.928Z,5.00
2023-04-16T16:04:26.765Z,6.30
2023-04-16T16:06:54.654Z,5.70
2023-04-16T16:09:26.803Z,5.20
2023-04-16T16:11:54.998Z,5.00
2023-04-16T16:14:22.801Z,4.80
2023-04-16T16:16:50.138Z,4.60
2023-04-16T16:19:18.169Z,4.90
2023-04-16T16:21:45.262Z,5.60
2023-04-16T16:24:12.610Z,4.90
2023-04-16T16:26:39.661Z,5.10
2023-04-16T16:29:07.531Z,5.20
2023-04-16T16:31:34.915Z,6.00
2023-04-16T16:34:02.823Z,5.40
2023-04-16T16:36:30.246Z,5.60
2023-04-16T16:38:57.640Z,5.90
2023-04-16T16:41:24.590Z,5.60
2023-04-16T16:43:51.773Z,5.50
2023-04-16T16:46:18.819Z,5.80
2023-04-16T16:48:46.124Z,5.90
2023-04-16T16:51:13.445Z,5.20
2023-04-16T16:53:40.648Z,6.30
2023-04-16T16:56:07.887Z,6.30
2023-04-16T16:58:35.111Z,6.60
2023-04-16T17:01:02.250Z,6.40
2023-04-16T17:03:29.488Z,6.80
2023-04-16T17:05:56.780Z,6.50
2023-04-16T17:08:24.135Z,6.60
2023-04-16T17:10:52.033Z,6.80
2023-04-16T17:13:20.780Z,7.10
2023-04-16T17:15:48.132Z,6.90
2023-04-16T17:18:15.659Z,7.20
2023-04-16T17:20:42.968Z,7.70
2023-04-16T17:23:10.107Z,7.20
2023-04-16T17:25:36.933Z,7.60
2023-04-16T17:28:04.281Z,7.30
2023-04-16T17:30:32.280Z,7.40
2023-04-16T17:32:59.345Z,8.10
2023-04-16T17:35:26.735Z,8.40
2023-04-16T17:37:53.607Z,8.90
2023-04-16T17:40:20.846Z,8.60
2023-04-16T17:42:49.601Z,9.30
2023-04-16T17:45:16.699Z,9.60
2023-04-16T17:47:47.356Z,10.50
2023-04-16T17:50:14.628Z,14.60
2023-04-16T17:52:41.497Z,15.90
2023-04-16T17:55:09.276Z,15.40
2023-04-16T17:57:37.158Z,14.30
2023-04-16T18:00:11.880Z,12.70
2023-04-16T18:02:41.237Z,12.70
2023-04-16T18:05:09.370Z,13.20
2023-04-16T18:07:36.972Z,16.70
2023-04-16T18:10:04.321Z,14.10
2023-04-16T18:12:31.373Z,15.50
2023-04-16T18:14:58.428Z,12.00
2023-04-16T18:17:25.412Z,11.50
2023-04-16T18:19:52.439Z,11.70
2023-04-16T18:22:19.597Z,11.30
2023-04-16T18:24:46.863Z,12.50
2023-04-16T18:27:14.080Z,12.70
2023-04-16T18:29:43.760Z,11.90
2023-04-16T18:32:12.305Z,12.20
2023-04-16T18:34:39.926Z,13.00
2023-04-16T18:37:07.351Z,13.70
2023-04-16T18:39:34.203Z,16.40
2023-04-16T18:42:01.838Z,17.00
2023-04-16T18:44:28.713Z,18.40
2023-04-16T18:46:56.026Z,18.30
2023-04-16T18:49:22.981Z,18.80
2023-04-16T18:51:49.956Z,18.50
2023-04-16T18:54:17.514Z,18.50
2023-04-16T18:56:45.402Z,20.40
2023-04-16T18:59:13.046Z,24.20
2023-04-16T19:01:40.154Z,24.90
2023-04-16T19:04:07.491Z,27.00
2023-04-16T19:06:35.113Z,26.50
2023-04-16T19:09:02.402Z,31.40
2023-04-16T19:11:29.477Z,29.40
2023-04-16T19:13:57.760Z,30.30
2023-04-16T19:16:25.333Z,29.80
2023-04-16T19:18:52.471Z,29.60
2023-04-16T19:21:19.390Z,30.20
2023-04-16T19:23:46.627Z,30.10
2023-04-16T19:26:13.784Z,32.10
2023-04-16T19:28:42.882Z,31.60
2023-04-16T19:31:10.193Z,31.80
2023-04-16T19:33:37.694Z,30.50
2023-04-16T19:36:05.807Z,29.60
2023-04-16T19:38:33.081Z,28.10
2023-04-16T19:41:00.538Z,26.20
2023-04-16T19:43:30.724Z,26.10
2023-04-16T19:45:58.708Z,25.70
2023-04-16T19:48:26.429Z,25.60
2023-04-16T19:50:53.728Z,26.10
2023-04-16T19:53:21.974Z,26.70
2023-04-16T19:55:49.335Z,25.60
2023-04-16T19:58:16.754Z,29.60
2023-04-16T20:00:44.555Z,26.60
2023-04-16T20:03:12.172Z,24.80
2023-04-16T20:05:39.522Z,24.50
2023-04-16T20:08:07.030Z,23.20
2023-04-16T20:10:34.366Z,23.50
2023-04-16T20:13:01.364Z,23.80
2023-04-16T20:15:28.571Z,24.40
2023-04-16T20:17:56.703Z,25.60
2023-04-16T20:20:23.964Z,25.50
2023-04-16T20:22:51.293Z,25.20
2023-04-16T20:25:19.624Z,24.40
2023-04-16T20:27:46.924Z,23.90
2023-04-16T20:30:14.576Z,22.50
2023-04-16T20:32:41.883Z,25.10
2023-04-16T20:35:11.742Z,23.20
2023-04-16T20:37:39.197Z,23.40
2023-04-16T20:40:09.804Z,23.50
2023-04-16T20:42:36.699Z,23.30
2023-04-16T20:45:03.852Z,23.80
2023-04-16T20:47:30.970Z,24.40
2023-04-16T20:49:58.845Z,24.00
2023-04-16T20:52:25.769Z,22.70
2023-04-16T20:54:52.709Z,24.10
2023-04-16T20:57:19.757Z,23.70
2023-04-16T20:59:47.153Z,24.00
2023-04-16T21:02:15.028Z,23.60
2023-04-16T21:04:42.326Z,23.40
2023-04-16T21:07:09.271Z,23.90
2023-04-16T21:09:36.107Z,24.00
2023-04-16T21:12:02.947Z,22.90
2023-04-16T21:14:29.804Z,22.80
2023-04-16T21:16:56.628Z,21.80
2023-04-16T21:19:23.670Z,21.80
2023-04-16T21:21:51.379Z,23.00
2023-04-16T21:24:19.501Z,22.10
2023-04-16T21:26:47.578Z,22.50
2023-04-16T21:29:15.112Z,21.70
2023-04-16T21:31:43.102Z,21.70
2023-04-16T21:34:10.563Z,22.60
2023-04-16T21:36:37.555Z,22.90
2023-04-16T21:39:04.778Z,22.50
2023-04-16T21:41:31.823Z,27.30
2023-04-16T21:43:58.653Z,27.90
2023-04-16T21:46:26.964Z,22.70
2023-04-16T21:48:54.175Z,23.60
2023-04-16T21:51:29.587Z,23.30
2023-04-16T21:53:57.779Z,24.30
2023-04-16T21:56:26.577Z,25.50
2023-04-16T21:58:53.616Z,25.70
2023-04-16T22:01:20.918Z,25.00
2023-04-16T22:03:50.983Z,23.20
2023-04-16T22:06:18.531Z,25.80
2023-04-16T22:08:45.703Z,24.90
2023-04-16T22:11:12.931Z,23.80
2023-04-16T22:13:42.839Z,23.90
2023-04-16T22:16:11.750Z,24.90
2023-04-16T22:18:39.079Z,24.40
2023-04-16T22:21:06.743Z,22.50
2023-04-16T22:23:33.821Z,25.10
2023-04-16T22:26:03.126Z,24.90
2023-04-16T22:28:30.238Z,25.70
2023-04-16T22:30:57.707Z,27.20
2023-04-16T22:33:24.774Z,25.60
2023-04-16T22:35:51.786Z,23.80
2023-04-16T22:38:18.840Z,24.50
2023-04-16T22:40:48.686Z,26.30
2023-04-16T22:43:18.103Z,23.80
2023-04-16T22:45:46.626Z,24.50
2023-04-16T22:48:13.645Z,22.90
2023-04-16T22:50:41.722Z,23.50
2023-04-16T22:53:08.991Z,23.00
2023-04-16T22:55:36.031Z,23.30
2023-04-16T22:58:03.063Z,23.20
2023-04-16T23:00:30.045Z,22.40
2023-04-16T23:02:57.019Z,23.10
2023-04-16T23:05:24.442Z,22.90
2023-04-16T23:07:51.564Z,22.50
2023-04-16T23:10:18.400Z,21.10
2023-04-16T23:12:45.587Z,22.70
2023-04-16T23:15:12.651Z,21.70
2023-04-16T23:17:40.189Z,22.60
2023-04-16T23:20:10.287Z,21.10
2023-04-16T23:22:37.308Z,21.40
2023-04-16T23:25:04.757Z,21.20
2023-04-16T23:27:32.827Z,20.40
2023-04-16T23:29:59.905Z,21.40
2023-04-16T23:32:27.992Z,20.20
2023-04-16T23:34:54.985Z,20.70
2023-04-16T23:37:21.826Z,21.10
2023-04-16T23:39:48.705Z,20.40
2023-04-16T23:42:15.750Z,21.10
2023-04-16T23:44:42.652Z,21.50
2023-04-16T23:47:10.116Z,21.60
2023-04-16T23:49:37.605Z,22.80
2023-04-16T23:52:05.240Z,26.20
2023-04-16T23:54:32.064Z,34.10
2023-04-16T23:56:59.036Z,23.70
2023-04-16T23:59:26.172Z,21.10
